Airfield :







YOU CAN JOIN US ON...

 
LOGIN :

Register | Disclaimer

   EN    FR    IT 

 









Legend :    VFR   Marginal VFR   IFR   Intensive IFR   Very Intensive IFR
Visi :
Ceiling :
>= 8 km
>= 3000ft
5 to 8 km
1000 to 3000 ft
1500m to 5 km
500 to 1000 ft
800 to 1500m
200 to 500 ft
< 800m
< 200 ft
Symbols :   Thunderstorms  Fog  Heavy snow  Heavy precipitations  Wind > 20 kt






- Airport Elevation : 1040 ft


KAFN - Jaffrey Silver Ranch

CURRENT METAR :
  • 260114Z AUTO 00000KT 4SM RA BR SCT009 OVC040 04/03 A2979 RMK AO2 P0007 T00390028

EXPIRED METARs :
  • 260052Z AUTO VRB05KT 3SM RA BR BKN009 OVC021 04/03 A2981 RMK AO2 SLP106 P0014 T00390028
  • 252352Z AUTO VRB05KT 3SM RA BR OVC006 03/02 A2987 RMK AO2 UPE2254RAB2254 SLP127 P0005 60005 T00330022 10033 20017 58025
  • 252312Z AUTO VRB04KT 3SM -RA BR OVC007 03/02 A2989 RMK AO2 UPE2254RAB2254 CIG 004V010 P0002 T00330022
  • 252252Z AUTO 05007KT 340V120 2SM UP BR OVC005 03/02 A2989 RMK AO2 UPB2158E20B52RAB51E52 SLP137 P0000 T00280022
  • 252234Z AUTO VRB05KT 2 1/2SM BR OVC005 03/02 A2991 RMK AO2 UPB2158E20 P0000 T00280017

TAF N/A



MET'MAP, your aeronautical weather chart ! - Copyright ORBIFLY December 2007 - Disclaimer

ORBIFLY MET'MAP TEAM :

Programming & Development : Alexandra Zaïnal
Concept & original design : Baudouin d'Aumeries
Assistance for programming : Marc-Olivier Méhu
Technical & hardware support : Manuel Goepfert

Contact : metmap@orbifly.com




SOURCES & CREDITS :

   NOAA